createdAt,value
2022-10-25T00:01:19.517Z,14.88
2022-10-25T00:03:47.255Z,14.86
2022-10-25T00:06:15.149Z,14.87
2022-10-25T00:08:42.934Z,14.84
2022-10-25T00:11:17.008Z,14.88
2022-10-25T00:13:45.969Z,14.82
2022-10-25T00:16:15.654Z,14.67
2022-10-25T00:18:43.342Z,14.64
2022-10-25T00:21:11.134Z,14.62
2022-10-25T00:23:38.748Z,14.66
2022-10-25T00:26:09.350Z,14.67
2022-10-25T00:28:37.211Z,14.68
2022-10-25T00:31:08.522Z,14.58
2022-10-25T00:33:37.936Z,14.58
2022-10-25T00:36:06.535Z,14.52
2022-10-25T00:38:34.161Z,14.51
2022-10-25T00:41:02.593Z,14.48
2022-10-25T00:43:38.534Z,14.39
2022-10-25T00:46:13.654Z,14.33
2022-10-25T00:48:44.324Z,14.29
2022-10-25T00:51:12.031Z,14.27
2022-10-25T00:53:39.725Z,14.13
2022-10-25T00:56:14.375Z,14.10
2022-10-25T00:58:45.274Z,14.12
2022-10-25T01:01:15.913Z,14.04
2022-10-25T01:03:46.291Z,14.06
2022-10-25T01:06:21.543Z,14.07
2022-10-25T01:08:50.998Z,14.03
2022-10-25T01:11:18.788Z,14.07
2022-10-25T01:13:46.814Z,14.10
2022-10-25T01:16:24.741Z,14.09
2022-10-25T01:19:00.085Z,14.06
2022-10-25T01:21:45.344Z,14.10
2022-10-25T01:24:45.729Z,14.09
2022-10-25T01:27:31.159Z,14.09
2022-10-25T01:30:08.138Z,13.91
2022-10-25T01:33:06.913Z,13.85
2022-10-25T01:35:44.291Z,13.74
2022-10-25T01:38:38.507Z,13.82
2022-10-25T01:41:16.387Z,13.83
2022-10-25T01:43:56.467Z,13.80
2022-10-25T01:46:30.171Z,13.75
2022-10-25T01:49:04.622Z,13.77
2022-10-25T01:51:32.537Z,13.69
2022-10-25T01:54:00.426Z,13.57
2022-10-25T01:56:33.538Z,13.61
2022-10-25T01:59:26.871Z,13.60
2022-10-25T02:02:08.882Z,13.61
2022-10-25T02:04:48.532Z,13.68
2022-10-25T02:07:24.383Z,13.63
2022-10-25T02:10:00.503Z,13.69
2022-10-25T02:12:32.686Z,13.70
2022-10-25T02:15:09.639Z,13.67
2022-10-25T02:17:41.948Z,13.69
2022-10-25T02:20:14.513Z,13.66
2022-10-25T02:22:42.543Z,13.59
2022-10-25T02:25:11.073Z,13.47
2022-10-25T02:27:40.839Z,13.40
2022-10-25T02:30:09.475Z,13.47
2022-10-25T02:32:37.632Z,13.47
2022-10-25T02:35:06.165Z,13.46
2022-10-25T02:37:35.141Z,13.47
2022-10-25T02:40:02.822Z,13.58
2022-10-25T02:42:30.421Z,13.67
2022-10-25T02:44:57.950Z,13.80
2022-10-25T02:47:25.909Z,13.81
2022-10-25T02:49:53.522Z,13.85
2022-10-25T02:52:21.080Z,13.90
2022-10-25T02:54:50.001Z,13.92
2022-10-25T02:57:17.604Z,14.01
2022-10-25T02:59:45.151Z,14.09
2022-10-25T03:02:12.762Z,14.18
2022-10-25T03:04:40.329Z,14.17
2022-10-25T03:07:08.045Z,14.18
2022-10-25T03:09:35.644Z,14.21
2022-10-25T03:12:05.047Z,14.21
2022-10-25T03:14:32.681Z,14.19
2022-10-25T03:17:00.268Z,14.12
2022-10-25T03:19:27.850Z,14.19
2022-10-25T03:21:55.473Z,14.19
2022-10-25T03:24:23.032Z,14.17
2022-10-25T03:26:50.652Z,14.12
2022-10-25T03:29:19.781Z,14.13
2022-10-25T03:31:47.755Z,14.15
2022-10-25T03:34:15.310Z,14.15
2022-10-25T03:36:42.914Z,14.15
2022-10-25T03:39:11.254Z,14.12
2022-10-25T03:41:38.839Z,14.08
2022-10-25T03:44:06.497Z,14.09
2022-10-25T03:46:35.585Z,14.08
2022-10-25T03:49:03.183Z,14.12
2022-10-25T03:51:30.786Z,14.19
2022-10-25T03:53:58.364Z,14.24
2022-10-25T03:56:25.950Z,14.28
2022-10-25T03:58:54.183Z,14.26
2022-10-25T04:01:22.113Z,14.16
2022-10-25T04:03:51.105Z,14.19
2022-10-25T04:06:18.653Z,14.17
2022-10-25T04:08:46.318Z,14.20
2022-10-25T04:11:13.936Z,14.18
2022-10-25T04:13:41.527Z,14.20
2022-10-25T04:16:09.746Z,14.17
2022-10-25T04:18:37.621Z,14.19
2022-10-25T04:21:06.883Z,14.13
2022-10-25T04:23:34.486Z,14.12
2022-10-25T04:26:02.045Z,14.10
2022-10-25T04:28:29.617Z,14.08
2022-10-25T04:30:57.168Z,14.08
2022-10-25T04:33:24.870Z,14.14
2022-10-25T04:35:56.938Z,14.11
2022-10-25T04:38:26.233Z,13.98
2022-10-25T04:40:55.157Z,13.89
2022-10-25T04:43:22.923Z,13.88
2022-10-25T04:45:50.507Z,13.87
2022-10-25T04:48:18.568Z,13.83
2022-10-25T04:50:46.679Z,13.74
2022-10-25T04:53:14.278Z,13.75
2022-10-25T04:55:43.202Z,13.77
2022-10-25T04:58:11.030Z,13.78
2022-10-25T05:00:38.636Z,13.81
2022-10-25T05:03:10.781Z,13.83
2022-10-25T05:05:41.135Z,13.82
2022-10-25T05:08:08.703Z,13.88
2022-10-25T05:10:39.182Z,13.86
2022-10-25T05:13:08.204Z,13.83
2022-10-25T05:15:35.769Z,13.78
2022-10-25T05:18:03.363Z,13.79
2022-10-25T05:20:30.874Z,13.79
2022-10-25T05:22:58.469Z,13.80
2022-10-25T05:25:26.117Z,13.81
2022-10-25T05:27:53.645Z,13.78
2022-10-25T05:30:22.602Z,13.86
2022-10-25T05:32:50.800Z,13.96
2022-10-25T05:35:18.362Z,14.02
2022-10-25T05:37:45.965Z,14.09
2022-10-25T05:40:13.803Z,14.16
2022-10-25T05:42:41.374Z,14.22
2022-10-25T05:45:09.665Z,14.26
2022-10-25T05:47:38.622Z,14.32
2022-10-25T05:50:06.984Z,14.36
2022-10-25T05:52:34.567Z,14.33
2022-10-25T05:55:02.511Z,14.43
2022-10-25T05:57:30.775Z,14.40
2022-10-25T05:59:58.338Z,14.25
2022-10-25T06:02:25.997Z,14.40
2022-10-25T06:04:54.931Z,14.48
2022-10-25T06:07:22.564Z,14.52
2022-10-25T06:09:50.184Z,14.52
2022-10-25T06:12:17.807Z,14.51
2022-10-25T06:14:45.390Z,14.49
2022-10-25T06:17:13.655Z,14.48
2022-10-25T06:19:41.200Z,14.54
2022-10-25T06:22:10.184Z,14.54
2022-10-25T06:24:37.803Z,14.52
2022-10-25T06:27:05.607Z,14.45
2022-10-25T06:29:33.563Z,14.48
2022-10-25T06:32:01.164Z,14.51
2022-10-25T06:34:28.810Z,14.52
2022-10-25T06:36:56.729Z,14.50
2022-10-25T06:39:25.633Z,14.52
2022-10-25T06:41:53.336Z,14.53
2022-10-25T06:44:20.919Z,14.58
2022-10-25T06:49:35.975Z,14.62
2022-10-25T06:52:03.591Z,14.52
2022-10-25T06:54:32.566Z,14.61
2022-10-25T06:57:00.161Z,14.66
2022-10-25T06:59:27.855Z,14.68
2022-10-25T07:01:57.230Z,14.69
2022-10-25T07:04:25.038Z,14.67
2022-10-25T07:06:55.191Z,14.66
2022-10-25T07:09:23.291Z,14.68
2022-10-25T07:11:52.447Z,14.75
2022-10-25T07:14:20.013Z,14.75
2022-10-25T07:16:47.570Z,14.75
2022-10-25T07:19:15.130Z,14.78
2022-10-25T07:21:42.696Z,14.81
2022-10-25T07:24:11.653Z,14.85
2022-10-25T07:26:40.342Z,14.89
2022-10-25T07:29:09.508Z,14.80
2022-10-25T07:31:41.164Z,14.82
2022-10-25T07:34:08.841Z,14.88
2022-10-25T07:36:36.422Z,14.95
2022-10-25T07:39:04.238Z,15.01
2022-10-25T07:41:31.778Z,15.00
2022-10-25T07:43:59.437Z,15.04
2022-10-25T07:46:28.420Z,15.01
2022-10-25T07:48:56.032Z,15.12
2022-10-25T07:51:23.651Z,15.12
2022-10-25T07:53:51.309Z,15.22
2022-10-25T07:56:23.357Z,15.28
2022-10-25T07:58:51.507Z,15.36
2022-10-25T08:01:21.907Z,15.34
2022-10-25T08:03:51.408Z,15.41
2022-10-25T08:06:19.738Z,15.43
2022-10-25T08:08:47.552Z,15.52
2022-10-25T08:11:15.564Z,15.54
2022-10-25T08:13:43.379Z,15.57
2022-10-25T08:16:11.008Z,15.53
2022-10-25T08:18:38.637Z,15.66
2022-10-25T08:21:07.749Z,15.69
2022-10-25T08:23:35.356Z,15.69
2022-10-25T08:26:03.403Z,15.74
2022-10-25T08:28:31.629Z,15.74
2022-10-25T08:31:00.704Z,15.86
2022-10-25T08:33:28.770Z,15.89
2022-10-25T08:35:56.331Z,15.93
2022-10-25T08:38:25.210Z,15.96
2022-10-25T08:40:59.060Z,16.02
2022-10-25T08:43:46.753Z,15.99
2022-10-25T08:46:20.035Z,15.94
2022-10-25T08:48:54.349Z,15.97
2022-10-25T08:51:27.142Z,16.04
2022-10-25T08:53:59.427Z,16.07
2022-10-25T08:56:29.099Z,16.14
2022-10-25T08:59:00.930Z,16.20
2022-10-25T09:01:31.203Z,16.23
2022-10-25T09:04:00.383Z,16.31
2022-10-25T09:06:34.777Z,16.35
2022-10-25T09:09:20.498Z,16.41
2022-10-25T09:12:00.203Z,16.38
2022-10-25T09:14:39.172Z,16.37
2022-10-25T09:17:17.982Z,16.40
2022-10-25T09:20:01.463Z,16.41
2022-10-25T09:22:31.120Z,16.48
2022-10-25T09:25:03.433Z,16.54
2022-10-25T09:27:36.593Z,16.59
2022-10-25T09:30:08.448Z,16.60
2022-10-25T09:32:40.309Z,16.62
2022-10-25T09:35:15.210Z,16.67
2022-10-25T09:37:46.743Z,16.62
2022-10-25T09:40:19.240Z,16.83
2022-10-25T09:42:52.010Z,16.82
2022-10-25T09:45:25.749Z,16.84
2022-10-25T09:48:01.334Z,16.85
2022-10-25T09:50:33.141Z,16.91
2022-10-25T09:53:12.242Z,16.85
2022-10-25T09:55:47.366Z,16.96
2022-10-25T09:58:20.405Z,16.98
2022-10-25T10:00:48.599Z,17.03
2022-10-25T10:03:16.293Z,17.08
2022-10-25T10:05:49.786Z,17.03
2022-10-25T10:08:17.335Z,16.98
2022-10-25T10:10:48.643Z,16.93
2022-10-25T10:13:22.789Z,17.00
2022-10-25T10:15:55.142Z,16.94
2022-10-25T10:18:28.348Z,16.96
2022-10-25T10:21:05.718Z,16.99
2022-10-25T10:23:38.340Z,17.11
2022-10-25T10:26:14.474Z,17.01
2022-10-25T10:28:46.780Z,17.14
2022-10-25T10:31:14.677Z,17.11
2022-10-25T10:33:48.151Z,17.10
2022-10-25T10:36:24.673Z,17.11
2022-10-25T10:38:52.451Z,17.02
2022-10-25T10:41:29.318Z,16.98
2022-10-25T10:44:12.808Z,17.09
2022-10-25T10:46:46.409Z,17.10
2022-10-25T10:49:15.292Z,17.08
2022-10-25T10:51:45.697Z,17.04
2022-10-25T10:54:15.766Z,17.10
2022-10-25T10:56:44.716Z,16.95
2022-10-25T10:59:29.145Z,17.18
2022-10-25T11:01:57.421Z,17.28
2022-10-25T11:04:26.232Z,17.22
2022-10-25T11:06:54.017Z,17.27
2022-10-25T11:09:24.876Z,17.40
2022-10-25T11:12:08.975Z,17.39
2022-10-25T11:14:36.609Z,17.40
2022-10-25T11:17:09.632Z,17.52
2022-10-25T11:20:03.386Z,17.63
2022-10-25T11:23:00.057Z,17.70
2022-10-25T11:25:38.535Z,17.74
2022-10-25T11:28:21.922Z,17.78
2022-10-25T11:31:02.452Z,17.74
2022-10-25T11:33:43.191Z,17.89
2022-10-25T11:36:26.597Z,17.82
2022-10-25T11:39:04.727Z,17.87
2022-10-25T11:41:44.578Z,17.76
2022-10-25T11:44:35.972Z,17.90
2022-10-25T11:47:07.292Z,18.04
2022-10-25T11:49:46.989Z,18.02
2022-10-25T11:52:39.546Z,17.88
2022-10-25T11:55:21.297Z,17.75
2022-10-25T11:57:57.298Z,17.88
2022-10-25T12:00:36.233Z,18.14
2022-10-25T12:03:17.086Z,18.00
2022-10-25T12:05:52.411Z,17.93
2022-10-25T12:08:35.291Z,17.86
2022-10-25T12:11:08.057Z,17.80
2022-10-25T12:13:39.849Z,17.66
2022-10-25T12:16:12.682Z,17.72
2022-10-25T12:18:43.123Z,17.72
2022-10-25T12:21:16.358Z,17.62
2022-10-25T12:23:46.443Z,17.62
2022-10-25T12:26:21.735Z,18.06
2022-10-25T12:28:51.607Z,18.18
2022-10-25T12:31:24.436Z,18.14
2022-10-25T12:33:56.599Z,17.90
2022-10-25T12:36:32.995Z,17.86
2022-10-25T12:39:03.217Z,18.14
2022-10-25T12:41:35.559Z,18.10
2022-10-25T12:44:15.886Z,18.16
2022-10-25T12:47:06.175Z,18.27
2022-10-25T12:49:55.049Z,18.30
2022-10-25T12:52:32.348Z,18.19
2022-10-25T12:55:47.302Z,18.02
2022-10-25T12:58:31.099Z,18.19
2022-10-25T13:01:12.179Z,18.22
2022-10-25T13:03:58.900Z,18.17
2022-10-25T13:06:32.470Z,18.11
2022-10-25T13:09:07.726Z,18.03
2022-10-25T13:11:38.824Z,18.14
2022-10-25T13:14:17.459Z,18.19
2022-10-25T13:16:45.093Z,18.13
2022-10-25T13:20:00.732Z,18.37
2022-10-25T13:22:59.152Z,18.34
2022-10-25T13:26:22.502Z,18.34
2022-10-25T13:28:51.986Z,18.34
2022-10-25T13:31:59.328Z,18.38
2022-10-25T13:34:34.284Z,18.97
2022-10-25T13:37:05.901Z,19.27
2022-10-25T13:39:37.976Z,19.40
2022-10-25T13:42:21.481Z,19.57
2022-10-25T13:44:55.591Z,19.83
2022-10-25T13:47:37.117Z,19.99
2022-10-25T13:53:02.522Z,20.27
2022-10-25T13:55:35.868Z,20.47
2022-10-25T13:58:24.791Z,20.58
2022-10-25T14:00:54.630Z,20.78
2022-10-25T14:03:27.993Z,20.91
2022-10-25T14:06:26.482Z,21.08
2022-10-25T14:09:09.795Z,21.15
2022-10-25T14:11:42.362Z,21.13
2022-10-25T14:14:27.949Z,21.04
2022-10-25T14:17:04.917Z,20.97
2022-10-25T14:19:37.794Z,20.85
2022-10-25T14:22:14.419Z,20.91
2022-10-25T14:24:44.975Z,20.81
2022-10-25T14:27:29.084Z,20.74
2022-10-25T14:30:21.571Z,20.93
2022-10-25T14:32:51.606Z,20.76
2022-10-25T14:35:19.721Z,20.61
2022-10-25T14:37:47.445Z,20.48
2022-10-25T14:40:21.918Z,20.34
2022-10-25T14:42:50.131Z,20.23
2022-10-25T14:45:22.348Z,20.14
2022-10-25T14:47:50.326Z,20.12
2022-10-25T14:50:21.881Z,20.04
2022-10-25T14:52:51.515Z,20.01
2022-10-25T14:55:28.300Z,20.11
2022-10-25T14:57:57.205Z,20.23
2022-10-25T15:00:25.556Z,20.07
2022-10-25T15:02:57.183Z,19.98
2022-10-25T15:05:26.788Z,20.05
2022-10-25T15:07:57.054Z,19.88
2022-10-25T15:10:38.588Z,19.76
2022-10-25T15:13:13.451Z,19.63
2022-10-25T15:15:44.745Z,19.50
2022-10-25T15:18:29.511Z,19.45
2022-10-25T15:21:12.228Z,19.31
2022-10-25T15:23:41.318Z,19.19
2022-10-25T15:26:24.772Z,19.09
2022-10-25T15:28:56.733Z,19.04
2022-10-25T15:31:28.354Z,19.01
2022-10-25T15:33:58.053Z,18.99
2022-10-25T15:36:28.831Z,18.92
2022-10-25T15:39:16.973Z,18.85
2022-10-25T15:41:48.267Z,18.76
2022-10-25T15:44:15.834Z,18.71
2022-10-25T15:46:43.872Z,18.66
2022-10-25T15:49:13.577Z,18.61
2022-10-25T15:51:43.059Z,18.53
2022-10-25T15:54:15.402Z,18.52
2022-10-25T15:56:43.478Z,18.46
2022-10-25T15:59:13.607Z,18.43
2022-10-25T16:01:44.366Z,18.37
2022-10-25T16:04:14.695Z,18.32
2022-10-25T16:06:42.673Z,18.28
2022-10-25T16:09:10.891Z,18.24
2022-10-25T16:11:43.734Z,18.21
2022-10-25T16:14:22.326Z,18.18
2022-10-25T16:16:50.562Z,18.13
2022-10-25T16:19:19.399Z,18.10
2022-10-25T16:21:47.238Z,18.06
2022-10-25T16:24:15.352Z,18.05
2022-10-25T16:26:45.160Z,18.01
2022-10-25T16:29:20.442Z,18.05
2022-10-25T16:31:48.229Z,18.00
2022-10-25T16:34:17.241Z,17.97
2022-10-25T16:36:44.889Z,17.91
2022-10-25T16:39:12.862Z,17.87
2022-10-25T16:41:41.987Z,17.81
2022-10-25T16:44:12.807Z,17.78
2022-10-25T16:46:48.468Z,17.73
2022-10-25T16:49:16.309Z,17.69
2022-10-25T16:51:44.449Z,17.70
2022-10-25T16:54:15.676Z,17.89
2022-10-25T16:56:45.152Z,17.92
2022-10-25T16:59:12.687Z,17.80
2022-10-25T17:01:44.543Z,17.71
2022-10-25T17:04:17.934Z,17.64
2022-10-25T17:06:45.547Z,17.55
2022-10-25T17:09:13.112Z,17.52
2022-10-25T17:11:40.894Z,17.48
2022-10-25T17:14:09.578Z,17.43
2022-10-25T17:16:37.792Z,17.46
2022-10-25T17:19:06.739Z,17.44
2022-10-25T17:21:35.734Z,17.43
2022-10-25T17:26:39.527Z,17.33
2022-10-25T17:29:09.898Z,17.28
2022-10-25T17:31:39.290Z,17.22
2022-10-25T17:34:11.118Z,17.18
2022-10-25T17:36:38.767Z,17.29
2022-10-25T17:39:08.137Z,17.33
2022-10-25T17:41:35.951Z,17.26
2022-10-25T17:44:04.047Z,17.21
2022-10-25T17:46:32.699Z,17.23
2022-10-25T17:49:03.453Z,17.22
2022-10-25T17:51:34.132Z,17.14
2022-10-25T17:54:01.831Z,17.11
2022-10-25T17:58:58.863Z,17.12
2022-10-25T18:01:31.831Z,17.07
2022-10-25T18:03:59.494Z,17.14
2022-10-25T18:06:27.425Z,17.10
2022-10-25T18:08:57.824Z,17.08
2022-10-25T18:11:27.124Z,17.11
2022-10-25T18:13:56.292Z,17.20
2022-10-25T18:16:26.558Z,17.22
2022-10-25T18:18:54.588Z,17.18
2022-10-25T18:21:22.253Z,17.15
2022-10-25T18:23:50.043Z,17.10
2022-10-25T18:26:18.943Z,17.27
2022-10-25T18:28:46.631Z,17.60
2022-10-25T18:31:14.533Z,17.73
2022-10-25T18:33:43.739Z,17.93
2022-10-25T18:36:13.038Z,17.92
2022-10-25T18:38:40.595Z,17.90
2022-10-25T18:41:10.564Z,17.92
2022-10-25T18:43:39.773Z,17.88
2022-10-25T18:46:07.404Z,17.86
2022-10-25T18:48:35.021Z,17.78
2022-10-25T18:51:06.627Z,17.62
2022-10-25T18:53:35.377Z,17.67
2022-10-25T18:56:03.363Z,17.56
2022-10-25T18:58:31.253Z,17.46
2022-10-25T19:01:07.396Z,17.30
2022-10-25T19:03:35.447Z,17.41
2022-10-25T19:06:03.299Z,17.47
2022-10-25T19:08:30.956Z,17.32
2022-10-25T19:10:58.750Z,17.24
2022-10-25T19:13:28.101Z,17.32
2022-10-25T19:15:58.145Z,17.35
2022-10-25T19:18:28.253Z,17.46
2022-10-25T19:21:01.210Z,17.35
2022-10-25T19:23:28.831Z,17.47
2022-10-25T19:25:56.402Z,17.50
2022-10-25T19:28:24.686Z,17.59
2022-10-25T19:30:52.266Z,17.57
2022-10-25T19:33:20.559Z,17.53
2022-10-25T19:35:49.502Z,17.44
2022-10-25T19:38:17.092Z,17.37
2022-10-25T19:40:45.849Z,17.33
2022-10-25T19:43:14.781Z,17.20
2022-10-25T19:45:43.254Z,17.09
2022-10-25T19:48:10.822Z,16.99
2022-10-25T19:50:39.040Z,16.92
2022-10-25T19:53:08.005Z,16.77
2022-10-25T19:55:35.960Z,16.66
2022-10-25T19:58:07.748Z,16.96
2022-10-25T20:00:35.381Z,16.99
2022-10-25T20:03:03.108Z,17.12
2022-10-25T20:05:30.828Z,17.11
2022-10-25T20:07:58.468Z,17.22
2022-10-25T20:10:27.465Z,17.15
2022-10-25T20:12:55.679Z,17.10
2022-10-25T20:15:23.295Z,16.99
2022-10-25T20:17:58.116Z,16.73
2022-10-25T20:20:25.746Z,16.85
2022-10-25T20:22:53.345Z,16.66
2022-10-25T20:25:20.954Z,16.52
2022-10-25T20:27:50.227Z,16.63
2022-10-25T20:30:18.307Z,16.55
2022-10-25T20:32:45.931Z,16.67
2022-10-25T20:35:13.600Z,16.66
2022-10-25T20:37:41.176Z,16.70
2022-10-25T20:40:09.854Z,16.89
2022-10-25T20:42:37.396Z,16.98
2022-10-25T20:45:07.220Z,17.09
2022-10-25T20:47:34.870Z,17.02
2022-10-25T20:50:02.535Z,16.96
2022-10-25T20:52:30.186Z,16.87
2022-10-25T20:54:57.835Z,16.88
2022-10-25T20:57:25.445Z,16.82
2022-10-25T20:59:52.998Z,16.77
2022-10-25T21:02:21.949Z,16.72
2022-10-25T21:04:53.821Z,16.64
2022-10-25T21:07:21.930Z,16.61
2022-10-25T21:09:49.746Z,16.64
2022-10-25T21:12:17.550Z,16.47
2022-10-25T21:14:45.182Z,16.31
2022-10-25T21:17:12.867Z,16.47
2022-10-25T21:19:41.811Z,16.37
2022-10-25T21:22:09.404Z,16.33
2022-10-25T21:24:37.070Z,16.35
2022-10-25T21:27:04.814Z,16.42
2022-10-25T21:29:32.469Z,16.63
2022-10-25T21:32:01.523Z,16.54
2022-10-25T21:34:29.179Z,16.52
2022-10-25T21:36:58.160Z,16.58
2022-10-25T21:39:25.752Z,16.58
2022-10-25T21:41:53.917Z,16.61
2022-10-25T21:44:22.258Z,16.55
2022-10-25T21:46:49.960Z,16.37
2022-10-25T21:49:17.557Z,16.38
2022-10-25T21:51:45.171Z,16.40
2022-10-25T21:54:14.172Z,16.22
2022-10-25T21:56:41.809Z,16.11
2022-10-25T21:59:09.423Z,16.23
2022-10-25T22:01:37.164Z,16.25
2022-10-25T22:04:05.161Z,16.29
2022-10-25T22:06:32.803Z,16.17
2022-10-25T22:09:00.507Z,16.13
2022-10-25T22:11:32.719Z,16.13
2022-10-25T22:14:02.307Z,16.08
2022-10-25T22:16:31.122Z,16.05
2022-10-25T22:19:00.391Z,15.99
2022-10-25T22:21:29.906Z,16.05
2022-10-25T22:23:57.564Z,15.83
2022-10-25T22:26:25.593Z,15.76
2022-10-25T22:28:55.336Z,15.82
2022-10-25T22:31:24.026Z,15.71
2022-10-25T22:33:54.795Z,15.97
2022-10-25T22:36:24.469Z,16.01
2022-10-25T22:38:52.168Z,15.92
2022-10-25T22:41:23.949Z,15.79
2022-10-25T22:43:52.052Z,15.81
2022-10-25T22:46:24.891Z,15.72
2022-10-25T22:48:54.004Z,15.64
2022-10-25T22:51:22.301Z,15.46
2022-10-25T22:53:50.615Z,15.40
2022-10-25T22:56:20.324Z,15.50
2022-10-25T22:58:50.097Z,15.90
2022-10-25T23:01:19.988Z,15.99
2022-10-25T23:03:52.009Z,15.93
2022-10-25T23:06:25.081Z,15.78
2022-10-25T23:08:53.953Z,15.45
2022-10-25T23:11:23.869Z,15.20
2022-10-25T23:13:51.545Z,15.10
2022-10-25T23:16:19.238Z,14.91
2022-10-25T23:18:47.402Z,14.90
2022-10-25T23:21:18.832Z,14.95
2022-10-25T23:23:47.492Z,15.08
2022-10-25T23:26:20.161Z,15.15
2022-10-25T23:28:48.373Z,15.17
2022-10-25T23:31:17.357Z,15.13
2022-10-25T23:33:45.251Z,15.13
2022-10-25T23:36:14.217Z,15.09
2022-10-25T23:38:44.196Z,14.98
2022-10-25T23:41:12.451Z,14.85
2022-10-25T23:43:40.766Z,14.79
2022-10-25T23:46:09.316Z,14.91
2022-10-25T23:48:37.432Z,15.09
2022-10-25T23:51:06.752Z,15.47
2022-10-25T23:53:35.077Z,15.81
2022-10-25T23:56:06.228Z,15.92
2022-10-25T23:58:34.059Z,15.78
